Hartsfield Jackson Atlanta International Airport
KATL : now visible

Airfield :











YOU CAN JOIN US ON...

 
LOGIN :

Register | Disclaimer

   EN    FR    IT 

 









Legend :    VFR   Marginal VFR   IFR   Intensive IFR   Very Intensive IFR
Visi :
Ceiling :
>= 8 km
>= 3000ft
5 to 8 km
1000 to 3000 ft
1500m to 5 km
500 to 1000 ft
800 to 1500m
200 to 500 ft
< 800m
< 200 ft
Symbols :   Thunderstorms  Fog  Heavy snow  Heavy precipitations  Wind > 20 kt






- Airport Elevation : 1026 ft
- IATA code : ATL


KATL - Hartsfield Jackson Atlanta International

CURRENT METAR :
  • 080652Z 10009G17KT 10SM FEW042 BKN055 12/04 A3028 RMK AO2 SLP251 T01170044 $

EXPIRED METARs :
  • 080552Z 09008KT 10SM FEW042 OVC060 11/05 A3027 RMK AO2 SLP251 BINOVC T01110050 10144 20106 53000 $
  • 080452Z 08006KT 10SM FEW042 OVC055 11/04 A3028 RMK AO2 SLP253 BINOVC T01110044 401720106 $

TAF KATL
Valid from the 08 at 06:00 until the 09 at 12:00 UTC


080525Z 0806/0912 09006KT P6SM FEW040 OVC060
FM081000 09012KT P6SM SCT025 BKN040
FM081700 09010KT P6SM BKN050
FM090300 10009KT P6SM OVC025



MET'MAP, your aeronautical weather chart ! - Copyright ORBIFLY December 2007 - Disclaimer

ORBIFLY MET'MAP TEAM :

Programming & Development : Alexandra Zaïnal
Concept & original design : Baudouin d'Aumeries
Assistance for programming : Marc-Olivier Méhu
Technical & hardware support : Manuel Goepfert

Contact : metmap@orbifly.com




SOURCES & CREDITS :

   NOAA       Earth
Advisory